Laughlin AFB, Texas
Current Conditions -  °F | °C
As of 11:58 PM on Tuesday 27 Jan 2015 (Local Time) from KDLF Reporting Station
Clear Clear  
Wind Chill: 53°   Ceiling: Unl
Heat Index: 53°   Visibility: 10mi
Dew Point: 40°   Wind: 8mph
Humidity: 62%   Direction: 40°NE
Pressure: 30.15"   Gusts: NA
Location:  29.36°N, 100.78°W
Report Text: KDLF 280558Z AUTO 04007KT 10SM CLR 12/05 A3015 RMK AO2 SLPNO T01150045 10240 20114 53004 $
Loading
Personal Weather Stations






























Interactive Weather Map New forecast layout! Learn more

10-Day Weather Forecast

Advertisements
Track Severe Weather on mobile